Time;durP1;ratioP1;P1;durP2;ratioP2;P2;SDS_P1;SDS_P2;PMS_P1;PMS_P2;Temp;Humidity;BMP_temperature;BMP_pressure;BME280_temperature;BME280_humidity;BME280_pressure;Samples;Min_cycle;Max_cycle;Signal;HPM_P1;HPM_P2
2022/11/21 00:00:49;;;;;;;2.30;1.48;;;;;;;;;;5041874;28;20410;-86
2022/11/21 00:03:15;;;;;;;3.13;1.60;;;;;;;;;;5041393;28;20037;-87
2022/11/21 00:05:44;;;;;;;2.85;1.52;;;;;;;;;;5041182;28;20041;-87
2022/11/21 00:08:12;;;;;;;2.03;1.40;;;;;;;;;;5042227;28;20060;-87
2022/11/21 00:10:38;;;;;;;2.50;1.60;;;;;;;;;;5041137;28;20349;-87
2022/11/21 00:13:05;;;;;;;4.05;2.00;;;;;;;;;;5035854;28;20034;-87
2022/11/21 00:15:32;;;;;;;3.22;1.70;;;;;;;;;;5019281;28;20021;-87
2022/11/21 00:17:57;;;;;;;4.75;1.65;;;;;;;;;;5020459;28;20045;-86
2022/11/21 00:20:23;;;;;;;2.75;1.60;;;;;;;;;;5018733;28;20041;-87
2022/11/21 00:22:48;;;;;;;2.80;1.60;;;;;;;;;;5019961;28;20038;-87
2022/11/21 00:25:14;;;;;;;2.58;1.63;;;;;;;;;;5020106;28;20052;-88
2022/11/21 00:27:40;;;;;;;4.00;1.55;;;;;;;;;;5020773;28;20037;-88
2022/11/21 00:30:11;;;;;;;2.58;1.50;;;;;;;;;;5019047;28;20403;-87
2022/11/21 00:32:36;;;;;;;2.53;1.50;;;;;;;;;;5018729;28;20041;-87
2022/11/21 00:35:03;;;;;;;3.53;1.60;;;;;;;;;;5019495;28;20048;-87
2022/11/21 00:37:31;;;;;;;2.25;1.27;;;;;;;;;;5017890;28;20469;-87
2022/11/21 00:39:56;;;;;;;2.85;1.08;;;;;;;;;;5021703;28;20037;-87
2022/11/21 00:42:21;;;;;;;2.65;1.27;;;;;;;;;;5017738;28;20080;-87
2022/11/21 00:44:47;;;;;;;2.40;1.25;;;;;;;;;;5016680;28;20037;-88
2022/11/21 00:47:12;;;;;;;3.00;1.30;;;;;;;;;;5018949;28;20502;-85
2022/11/21 00:49:38;;;;;;;2.00;1.25;;;;;;;;;;5017973;28;20070;-85
2022/11/21 00:52:03;;;;;;;2.30;1.45;;;;;;;;;;5018792;28;20038;-86
2022/11/21 00:54:29;;;;;;;1.95;1.20;;;;;;;;;;5016764;28;20060;-85
2022/11/21 00:56:54;;;;;;;4.13;1.50;;;;;;;;;;5016706;28;20073;-86
2022/11/21 00:59:19;;;;;;;2.17;1.42;;;;;;;;;;5017100;28;20044;-87
2022/11/21 01:01:45;;;;;;;2.50;1.30;;;;;;;;;;5019208;28;20454;-87
2022/11/21 01:04:10;;;;;;;1.80;1.30;;;;;;;;;;5017843;28;20045;-86
2022/11/21 01:06:37;;;;;;;2.63;1.30;;;;;;;;;;5018919;28;20049;-87
2022/11/21 01:09:02;;;;;;;3.15;1.38;;;;;;;;;;5018913;28;20483;-86
2022/11/21 01:11:28;;;;;;;3.75;1.33;;;;;;;;;;5018027;28;20034;-87
2022/11/21 01:13:54;;;;;;;2.05;1.45;;;;;;;;;;5017165;28;20048;-87
2022/11/21 01:16:22;;;;;;;2.55;1.58;;;;;;;;;;5017515;28;20096;-87
2022/11/21 01:18:48;;;;;;;2.35;1.42;;;;;;;;;;5017938;28;20045;-86
2022/11/21 01:21:15;;;;;;;2.75;1.50;;;;;;;;;;5016693;28;20034;-87
2022/11/21 01:23:42;;;;;;;2.35;1.40;;;;;;;;;;5018091;28;20034;-86
2022/11/21 01:26:16;;;;;;;2.85;1.50;;;;;;;;;;5016697;28;20407;-87
2022/11/21 01:28:45;;;;;;;2.17;1.30;;;;;;;;;;5018354;28;20029;-87
2022/11/21 01:31:14;;;;;;;1.80;1.33;;;;;;;;;;5017202;28;20038;-87
2022/11/21 01:33:42;;;;;;;1.80;1.15;;;;;;;;;;5018139;28;20042;-86
2022/11/21 01:36:10;;;;;;;2.17;1.30;;;;;;;;;;5017198;28;20040;-87
2022/11/21 01:38:35;;;;;;;1.30;1.10;;;;;;;;;;5018834;28;20025;-86
2022/11/21 01:41:01;;;;;;;2.83;1.40;;;;;;;;;;5017783;28;20095;-87
2022/11/21 01:43:27;;;;;;;2.10;1.30;;;;;;;;;;5017889;28;20406;-86
2022/11/21 01:45:58;;;;;;;2.20;1.40;;;;;;;;;;5015997;28;20185;-86
2022/11/21 01:48:51;;;;;;;2.08;1.40;;;;;;;;;;5017999;28;20042;-87
2022/11/21 01:51:43;;;;;;;2.50;1.40;;;;;;;;;;4999836;28;20487;-87
2022/11/21 01:54:27;;;;;;;1.88;1.30;;;;;;;;;;5016707;28;20049;-85
2022/11/21 01:57:02;;;;;;;2.25;1.05;;;;;;;;;;5016307;28;20037;-87
2022/11/21 01:59:36;;;;;;;2.42;1.10;;;;;;;;;;5018362;28;20045;-87
2022/11/21 02:02:05;;;;;;;1.80;1.10;;;;;;;;;;5017985;28;20034;-87
2022/11/21 02:04:32;;;;;;;1.95;1.10;;;;;;;;;;5015619;28;20088;-86
2022/11/21 02:07:00;;;;;;;1.75;0.90;;;;;;;;;;5017614;28;20065;-87
2022/11/21 02:09:27;;;;;;;1.40;0.90;;;;;;;;;;5017210;28;20030;-87
2022/11/21 02:12:05;;;;;;;1.70;1.20;;;;;;;;;;5018492;28;20394;-86
2022/11/21 02:14:32;;;;;;;2.00;1.00;;;;;;;;;;5013843;28;20073;-87
2022/11/21 02:17:02;;;;;;;1.65;1.10;;;;;;;;;;5017390;28;20041;-86
2022/11/21 02:19:41;;;;;;;1.92;1.10;;;;;;;;;;5018142;28;20046;-85
2022/11/21 02:22:14;;;;;;;0.88;0.70;;;;;;;;;;5019614;28;20033;-87
2022/11/21 02:24:45;;;;;;;0.65;0.50;;;;;;;;;;5017406;28;20041;-86
2022/11/21 02:27:11;;;;;;;0.40;0.40;;;;;;;;;;5018772;28;20030;-87
2022/11/21 02:29:39;;;;;;;1.65;0.90;;;;;;;;;;5018169;28;20033;-88
2022/11/21 02:32:05;;;;;;;0.88;0.80;;;;;;;;;;5018478;28;20045;-87
2022/11/21 02:34:31;;;;;;;1.33;0.90;;;;;;;;;;5017444;28;20042;-87
2022/11/21 02:36:57;;;;;;;0.75;0.70;;;;;;;;;;5017965;28;20050;-87
2022/11/21 02:39:28;;;;;;;1.75;0.90;;;;;;;;;;5016856;28;20040;-85
2022/11/21 02:42:25;;;;;;;1.33;0.93;;;;;;;;;;5017754;28;20094;-86
2022/11/21 02:45:13;;;;;;;0.90;0.70;;;;;;;;;;4989583;28;20049;-86
2022/11/21 02:47:40;;;;;;;2.83;0.80;;;;;;;;;;5018805;28;20030;-87
2022/11/21 02:50:13;;;;;;;0.90;0.80;;;;;;;;;;5021812;28;20045;-86
2022/11/21 02:52:39;;;;;;;1.48;1.08;;;;;;;;;;5020675;28;20033;-86
2022/11/21 02:55:05;;;;;;;1.42;1.00;;;;;;;;;;5021166;28;20490;-86
2022/11/21 02:57:31;;;;;;;1.00;0.80;;;;;;;;;;5021658;28;20044;-86
2022/11/21 02:59:56;;;;;;;1.35;0.73;;;;;;;;;;5020340;28;20042;-86
2022/11/21 03:02:22;;;;;;;1.17;0.65;;;;;;;;;;5021572;28;20033;-87
2022/11/21 03:04:47;;;;;;;0.77;0.65;;;;;;;;;;5019737;28;20509;-86
2022/11/21 03:07:13;;;;;;;2.00;0.57;;;;;;;;;;5018896;28;20133;-86
2022/11/21 03:09:38;;;;;;;1.52;0.77;;;;;;;;;;5018987;28;20042;-86
2022/11/21 03:12:06;;;;;;;0.88;0.70;;;;;;;;;;5020512;28;20100;-87
2022/11/21 03:14:32;;;;;;;2.25;1.00;;;;;;;;;;5018798;28;20045;-86
2022/11/21 03:16:58;;;;;;;1.70;1.00;;;;;;;;;;5020789;28;20117;-87
2022/11/21 03:19:23;;;;;;;1.90;0.90;;;;;;;;;;5020587;28;20072;-86
2022/11/21 03:21:48;;;;;;;1.42;1.10;;;;;;;;;;5020725;28;20033;-86
2022/11/21 03:24:14;;;;;;;1.23;0.90;;;;;;;;;;5020719;28;20178;-86
2022/11/21 03:26:39;;;;;;;1.45;1.05;;;;;;;;;;5020086;28;20033;-87
2022/11/21 03:29:06;;;;;;;2.33;1.00;;;;;;;;;;5020250;28;20073;-86
2022/11/21 03:31:31;;;;;;;2.67;0.98;;;;;;;;;;5019017;28;20505;-86
2022/11/21 03:33:57;;;;;;;0.88;0.77;;;;;;;;;;5020159;28;20038;-85
2022/11/21 03:36:22;;;;;;;1.55;1.02;;;;;;;;;;5019698;28;20129;-86
2022/11/21 03:38:47;;;;;;;1.20;0.90;;;;;;;;;;5018267;28;20120;-85
2022/11/21 03:41:28;;;;;;;1.20;0.80;;;;;;;;;;5019593;28;20069;-87
2022/11/21 03:44:02;;;;;;;0.95;0.80;;;;;;;;;;5018667;28;20041;-86
2022/11/21 03:46:30;;;;;;;1.08;0.80;;;;;;;;;;5019368;28;20092;-85
2022/11/21 03:48:56;;;;;;;3.40;0.90;;;;;;;;;;5019769;28;20033;-87
2022/11/21 03:51:21;;;;;;;1.40;0.82;;;;;;;;;;5018401;28;20033;-86
2022/11/21 03:53:47;;;;;;;1.33;0.88;;;;;;;;;;5018355;28;20057;-85
2022/11/21 03:56:12;;;;;;;1.20;0.90;;;;;;;;;;5019049;28;20034;-86
2022/11/21 03:58:38;;;;;;;1.60;1.10;;;;;;;;;;5017655;28;20026;-85
2022/11/21 04:01:04;;;;;;;1.77;0.93;;;;;;;;;;5018713;28;20061;-87
2022/11/21 04:03:30;;;;;;;1.25;0.80;;;;;;;;;;5018724;28;20042;-87
2022/11/21 04:05:55;;;;;;;1.63;0.80;;;;;;;;;;5017865;28;20062;-86
2022/11/21 04:08:21;;;;;;;2.20;0.95;;;;;;;;;;5018892;28;20041;-87
2022/11/21 04:10:47;;;;;;;1.63;1.00;;;;;;;;;;5019010;28;20052;-86
2022/11/21 04:13:13;;;;;;;1.63;1.10;;;;;;;;;;5001858;28;20197;-86
2022/11/21 04:15:40;;;;;;;1.98;1.02;;;;;;;;;;5017142;28;20041;-86
2022/11/21 04:18:06;;;;;;;1.80;0.73;;;;;;;;;;5017767;28;20022;-86
2022/11/21 04:20:31;;;;;;;0.88;0.70;;;;;;;;;;5019054;28;20034;-87
2022/11/21 04:22:57;;;;;;;1.20;0.80;;;;;;;;;;5018458;28;20487;-86
2022/11/21 04:25:22;;;;;;;2.40;1.00;;;;;;;;;;5018256;28;20045;-87
2022/11/21 04:27:48;;;;;;;1.40;0.88;;;;;;;;;;5018799;28;20406;-85
2022/11/21 04:30:14;;;;;;;1.23;0.80;;;;;;;;;;5018876;28;20097;-86
2022/11/21 04:32:39;;;;;;;1.95;0.90;;;;;;;;;;5017515;28;20037;-87
2022/11/21 04:35:05;;;;;;;2.90;1.10;;;;;;;;;;5017856;28;20056;-87
2022/11/21 04:37:31;;;;;;;1.98;0.98;;;;;;;;;;5018334;28;20418;-87
2022/11/21 04:39:56;;;;;;;1.52;1.00;;;;;;;;;;5018921;28;20056;-85
2022/11/21 04:42:23;;;;;;;1.77;0.85;;;;;;;;;;5019941;28;20566;-84
2022/11/21 04:44:48;;;;;;;3.13;1.00;;;;;;;;;;5017493;28;20040;-85
2022/11/21 04:47:14;;;;;;;2.05;1.10;;;;;;;;;;5019423;28;20065;-87
2022/11/21 04:49:39;;;;;;;4.28;1.30;;;;;;;;;;5018679;28;20037;-87
2022/11/21 04:52:04;;;;;;;2.00;1.00;;;;;;;;;;5019120;28;20049;-86
2022/11/21 04:54:30;;;;;;;2.30;1.13;;;;;;;;;;5018411;28;20091;-87
2022/11/21 04:56:55;;;;;;;4.95;2.08;;;;;;;;;;5017633;28;20122;-87
2022/11/21 04:59:21;;;;;;;5.95;2.05;;;;;;;;;;5018321;28;20037;-85
2022/11/21 05:01:46;;;;;;;1.83;1.23;;;;;;;;;;5018405;28;20487;-84
2022/11/21 05:04:12;;;;;;;4.90;2.38;;;;;;;;;;5018307;28;20045;-86
2022/11/21 05:06:37;;;;;;;4.55;2.58;;;;;;;;;;5018901;28;20037;-86
2022/11/21 05:09:03;;;;;;;1.92;1.15;;;;;;;;;;5018779;28;20068;-86
2022/11/21 05:14:12;;;;;;;2.55;1.23;;;;;;;;;;5016244;28;20030;-87
2022/11/21 05:16:38;;;;;;;3.83;1.38;;;;;;;;;;5018463;28;20080;-86
2022/11/21 05:19:03;;;;;;;2.22;1.00;;;;;;;;;;5018830;28;20037;-85
2022/11/21 05:21:29;;;;;;;1.65;1.00;;;;;;;;;;5020119;28;20042;-87
2022/11/21 05:23:54;;;;;;;1.50;1.10;;;;;;;;;;5020126;28;20033;-87
2022/11/21 05:26:20;;;;;;;1.88;1.13;;;;;;;;;;5017496;28;20046;-86
2022/11/21 05:28:47;;;;;;;1.80;1.02;;;;;;;;;;5018637;28;20017;-88
2022/11/21 05:31:12;;;;;;;4.57;1.80;;;;;;;;;;5017770;28;20124;-87
2022/11/21 05:33:38;;;;;;;1.20;1.00;;;;;;;;;;5016832;28;20112;-87
2022/11/21 05:36:04;;;;;;;2.25;1.15;;;;;;;;;;5016935;28;20041;-87
2022/11/21 05:38:29;;;;;;;1.10;0.90;;;;;;;;;;5018779;28;20064;-85
2022/11/21 05:40:55;;;;;;;0.95;0.88;;;;;;;;;;5017449;28;20030;-87
2022/11/21 05:46:04;;;;;;;2.13;1.08;;;;;;;;;;5017250;28;20034;-87
2022/11/21 05:48:29;;;;;;;3.78;1.00;;;;;;;;;;5016185;28;20444;-86
2022/11/21 05:50:55;;;;;;;1.77;1.08;;;;;;;;;;5017388;28;20500;-88
2022/11/21 05:53:23;;;;;;;4.80;1.30;;;;;;;;;;5017747;28;20060;-87
2022/11/21 05:55:49;;;;;;;1.33;1.00;;;;;;;;;;5016553;28;20042;-85
2022/11/21 05:58:14;;;;;;;3.63;1.10;;;;;;;;;;5017638;28;20034;-86
2022/11/21 06:00:40;;;;;;;2.28;1.02;;;;;;;;;;5017874;28;20038;-86
2022/11/21 06:05:57;;;;;;;3.38;1.27;;;;;;;;;;5016866;28;20037;-86
2022/11/21 06:08:22;;;;;;;3.22;1.13;;;;;;;;;;5017892;28;20105;-87
2022/11/21 06:10:48;;;;;;;3.90;1.52;;;;;;;;;;5017877;28;20071;-86
2022/11/21 06:13:22;;;;;;;2.35;1.55;;;;;;;;;;5017028;28;20065;-85
2022/11/21 06:16:01;;;;;;;1.35;1.00;;;;;;;;;;5017694;28;20034;-85
2022/11/21 06:18:29;;;;;;;2.55;1.45;;;;;;;;;;5018658;28;20074;-87
2022/11/21 06:21:00;;;;;;;2.78;1.90;;;;;;;;;;5017291;28;20041;-87
2022/11/21 06:23:25;;;;;;;3.47;2.00;;;;;;;;;;5020910;28;20053;-86
2022/11/21 06:25:57;;;;;;;3.50;1.80;;;;;;;;;;5020318;28;20491;-88
2022/11/21 06:28:22;;;;;;;4.40;2.47;;;;;;;;;;5020939;28;20061;-85
2022/11/21 06:30:50;;;;;;;7.15;3.13;;;;;;;;;;5023675;28;20052;-84
2022/11/21 06:33:16;;;;;;;5.07;3.00;;;;;;;;;;5041905;28;20030;-86
2022/11/21 06:35:42;;;;;;;5.28;2.83;;;;;;;;;;5040612;28;20461;-86
2022/11/21 06:38:08;;;;;;;2.95;1.40;;;;;;;;;;5038848;28;20037;-87
2022/11/21 06:40:33;;;;;;;1.50;1.10;;;;;;;;;;5038965;28;20052;-86
2022/11/21 06:42:59;;;;;;;1.80;1.00;;;;;;;;;;5039717;28;20479;-87
2022/11/21 06:45:25;;;;;;;2.10;1.00;;;;;;;;;;5038146;28;20048;-87
2022/11/21 06:47:50;;;;;;;1.40;1.10;;;;;;;;;;5039817;28;20029;-86
2022/11/21 06:50:15;;;;;;;4.18;1.20;;;;;;;;;;5040372;28;20494;-86
2022/11/21 06:52:41;;;;;;;3.15;1.35;;;;;;;;;;5040027;28;20033;-87
2022/11/21 06:55:08;;;;;;;2.13;1.35;;;;;;;;;;5038407;28;20522;-86
2022/11/21 06:57:34;;;;;;;1.80;1.00;;;;;;;;;;5039709;28;20059;-86
2022/11/21 06:59:59;;;;;;;2.15;1.20;;;;;;;;;;5040058;28;20040;-86
2022/11/21 07:02:26;;;;;;;1.40;0.80;;;;;;;;;;5038541;28;20033;-86
2022/11/21 07:04:51;;;;;;;2.63;1.00;;;;;;;;;;5040664;28;20387;-85
2022/11/21 07:07:17;;;;;;;2.03;1.30;;;;;;;;;;5039958;28;20041;-84
2022/11/21 07:09:43;;;;;;;2.55;1.02;;;;;;;;;;5039396;28;20041;-87
2022/11/21 07:14:53;;;;;;;1.67;1.15;;;;;;;;;;5037499;28;20041;-87
2022/11/21 07:17:18;;;;;;;1.67;1.20;;;;;;;;;;5039721;28;20029;-88
2022/11/21 07:19:44;;;;;;;3.00;1.20;;;;;;;;;;5043746;28;20041;-87
2022/11/21 07:22:09;;;;;;;2.55;1.20;;;;;;;;;;5039565;28;20037;-87
2022/11/21 07:24:35;;;;;;;2.45;1.35;;;;;;;;;;5039779;28;20074;-86
2022/11/21 07:27:01;;;;;;;1.85;1.20;;;;;;;;;;5041107;28;20045;-87
2022/11/21 07:29:26;;;;;;;2.35;0.93;;;;;;;;;;5039299;28;20035;-87
2022/11/21 07:31:53;;;;;;;0.90;0.80;;;;;;;;;;5039537;28;20037;-86
2022/11/21 07:34:21;;;;;;;1.10;0.90;;;;;;;;;;5040502;28;20069;-87
2022/11/21 07:36:46;;;;;;;1.35;1.02;;;;;;;;;;5040502;28;20500;-87
2022/11/21 07:39:12;;;;;;;2.22;1.00;;;;;;;;;;5039220;28;20061;-88
2022/11/21 07:41:37;;;;;;;1.05;0.80;;;;;;;;;;5040155;28;20037;-86
2022/11/21 07:44:03;;;;;;;1.40;0.73;;;;;;;;;;5039261;28;20063;-86
2022/11/21 07:46:28;;;;;;;1.98;0.80;;;;;;;;;;5040496;28;20569;-86
2022/11/21 07:48:54;;;;;;;0.70;0.50;;;;;;;;;;5039015;28;20466;-85
2022/11/21 07:51:19;;;;;;;0.45;0.38;;;;;;;;;;5040018;28;20119;-84
2022/11/21 07:53:45;;;;;;;0.20;0.20;;;;;;;;;;5038990;28;20037;-85
2022/11/21 07:56:10;;;;;;;2.30;0.43;;;;;;;;;;5038261;28;20118;-85
2022/11/21 07:58:36;;;;;;;0.20;0.20;;;;;;;;;;5038174;28;20041;-86
2022/11/21 08:01:05;;;;;;;0.80;0.30;;;;;;;;;;5039303;28;20036;-84
2022/11/21 08:03:32;;;;;;;0.45;0.40;;;;;;;;;;5038864;28;20033;-85
2022/11/21 08:06:01;;;;;;;0.75;0.60;;;;;;;;;;5036620;28;20041;-87
2022/11/21 08:08:26;;;;;;;0.50;0.50;;;;;;;;;;5035568;28;20033;-87
2022/11/21 08:10:52;;;;;;;3.22;1.20;;;;;;;;;;5036600;28;20405;-85
2022/11/21 08:13:17;;;;;;;5.45;2.00;;;;;;;;;;5036575;28;20057;-85
2022/11/21 08:15:43;;;;;;;13.50;4.35;;;;;;;;;;5033450;28;20041;-86
2022/11/21 08:18:14;;;;;;;4.18;1.85;;;;;;;;;;5036424;28;20116;-85
2022/11/21 08:20:40;;;;;;;2.05;1.30;;;;;;;;;;5036461;28;20029;-85
2022/11/21 08:23:06;;;;;;;2.53;1.15;;;;;;;;;;5036310;28;20034;-85
2022/11/21 08:25:35;;;;;;;2.67;1.65;;;;;;;;;;5035240;28;20046;-85
2022/11/21 08:28:01;;;;;;;3.78;1.50;;;;;;;;;;5034933;28;20075;-86
2022/11/21 08:30:27;;;;;;;1.17;0.93;;;;;;;;;;5035854;28;20493;-85
2022/11/21 08:32:52;;;;;;;1.23;0.90;;;;;;;;;;5034740;28;20021;-88
2022/11/21 08:35:18;;;;;;;1.65;0.95;;;;;;;;;;5035030;28;20038;-84
2022/11/21 08:37:43;;;;;;;1.85;0.90;;;;;;;;;;5035319;28;20037;-85
2022/11/21 08:40:09;;;;;;;1.77;0.85;;;;;;;;;;5034713;28;20037;-87
2022/11/21 08:42:36;;;;;;;2.30;0.93;;;;;;;;;;5036028;28;20049;-89
2022/11/21 08:45:06;;;;;;;0.70;0.70;;;;;;;;;;5036647;28;20025;-85
2022/11/21 08:47:32;;;;;;;0.82;0.70;;;;;;;;;;5037796;28;20449;-88
2022/11/21 08:49:58;;;;;;;1.02;0.80;;;;;;;;;;5037440;28;20025;-87
2022/11/21 08:52:23;;;;;;;0.70;0.60;;;;;;;;;;5037001;28;20040;-87
2022/11/21 08:54:49;;;;;;;1.98;0.75;;;;;;;;;;5034154;28;20033;-85
2022/11/21 08:57:14;;;;;;;1.30;0.80;;;;;;;;;;5037345;28;20037;-86
2022/11/21 08:59:39;;;;;;;1.58;0.90;;;;;;;;;;5034565;28;20076;-87
2022/11/21 09:02:06;;;;;;;2.05;1.20;;;;;;;;;;5034726;28;20033;-85
2022/11/21 09:04:31;;;;;;;1.10;0.60;;;;;;;;;;5032788;28;20075;-86
2022/11/21 09:06:57;;;;;;;2.13;0.90;;;;;;;;;;5034869;28;20092;-86
2022/11/21 09:09:22;;;;;;;1.65;0.50;;;;;;;;;;5033165;28;20526;-87
2022/11/21 09:11:48;;;;;;;0.40;0.40;;;;;;;;;;5034055;28;20056;-88
2022/11/21 09:19:55;;;;;;;2.47;0.95;;;;;;;;;;5000242;28;20056;-86
2022/11/21 09:22:20;;;;;;;0.98;0.50;;;;;;;;;;5034406;28;20026;-88
2022/11/21 09:24:45;;;;;;;1.48;0.47;;;;;;;;;;5033848;28;20402;-85
2022/11/21 09:27:11;;;;;;;1.13;0.50;;;;;;;;;;5034524;28;20033;-86
2022/11/21 09:29:36;;;;;;;0.50;0.38;;;;;;;;;;5033004;28;20478;-87
2022/11/21 09:32:02;;;;;;;0.68;0.40;;;;;;;;;;5033916;28;20138;-85
2022/11/21 09:34:27;;;;;;;1.55;0.50;;;;;;;;;;5032456;28;20045;-84
2022/11/21 09:36:54;;;;;;;1.88;1.00;;;;;;;;;;5033917;28;20048;-86
2022/11/21 09:39:20;;;;;;;2.72;1.20;;;;;;;;;;5032586;28;20041;-84
2022/11/21 09:42:00;;;;;;;1.30;0.70;;;;;;;;;;5033669;28;20033;-86
2022/11/21 09:44:44;;;;;;;1.20;0.70;;;;;;;;;;5032209;28;20042;-85
2022/11/21 09:47:28;;;;;;;2.65;0.70;;;;;;;;;;5032708;28;20037;-85
2022/11/21 09:50:00;;;;;;;0.95;0.70;;;;;;;;;;5034040;28;20033;-86
2022/11/21 09:52:40;;;;;;;2.25;0.57;;;;;;;;;;5034220;28;20125;-87
2022/11/21 09:55:33;;;;;;;1.77;1.10;;;;;;;;;;5033535;28;20038;-85
2022/11/21 09:58:10;;;;;;;1.10;0.90;;;;;;;;;;5035822;28;20564;-86
2022/11/21 10:00:36;;;;;;;1.77;0.70;;;;;;;;;;5020596;28;20041;-87
2022/11/21 10:03:01;;;;;;;1.17;0.80;;;;;;;;;;5037369;28;20021;-84
2022/11/21 10:05:40;;;;;;;1.08;0.60;;;;;;;;;;5037929;28;20128;-87
2022/11/21 10:08:28;;;;;;;1.10;0.68;;;;;;;;;;5036883;28;20531;-86
2022/11/21 10:10:59;;;;;;;1.92;0.82;;;;;;;;;;5039203;28;20039;-85
2022/11/21 10:13:51;;;;;;;0.80;0.50;;;;;;;;;;5038009;28;20034;-87
2022/11/21 10:16:50;;;;;;;1.92;0.55;;;;;;;;;;5038458;22;20046;-86
2022/11/21 10:19:51;;;;;;;0.60;0.55;;;;;;;;;;5016406;28;20041;-87
2022/11/21 10:23:13;;;;;;;2.05;0.75;;;;;;;;;;5016152;28;20042;-86
2022/11/21 10:25:52;;;;;;;0.80;0.52;;;;;;;;;;4942084;28;20038;-86
2022/11/21 10:28:34;;;;;;;1.23;0.70;;;;;;;;;;4996833;28;20461;-85
2022/11/21 10:31:19;;;;;;;0.98;0.60;;;;;;;;;;4995391;28;20034;-84
2022/11/21 10:33:52;;;;;;;2.03;0.60;;;;;;;;;;4996591;28;20057;-84
2022/11/21 10:36:35;;;;;;;2.40;1.00;;;;;;;;;;4995989;28;20189;-83
2022/11/21 10:46:32;;;;;;;0.90;0.60;;;;;;;;;;4996235;28;20418;-85
2022/11/21 10:49:00;;;;;;;1.13;0.65;;;;;;;;;;4995421;28;20038;-83
2022/11/21 10:51:46;;;;;;;0.68;0.60;;;;;;;;;;4996502;28;20030;-84
2022/11/21 10:54:32;;;;;;;2.20;0.73;;;;;;;;;;4995822;28;20073;-83
2022/11/21 10:57:08;;;;;;;;;;;;;;;;;;4979206;28;20188;-81
2022/11/21 10:59:33;;;;;;;1.10;0.60;;;;;;;;;;4996081;28;19917;-83
2022/11/21 11:02:12;;;;;;;1.63;1.08;;;;;;;;;;4996333;28;20041;-83
2022/11/21 11:04:38;;;;;;;1.13;0.85;;;;;;;;;;4995957;28;20045;-84
2022/11/21 11:17:53;;;;;;;1.67;0.90;;;;;;;;;;5050605;23;20045;-83
2022/11/21 11:20:41;;;;;;;7.25;2.50;;;;;;;;;;5035780;28;20037;-84
2022/11/21 11:23:21;;;;;;;2.40;0.73;;;;;;;;;;5017842;28;20056;-83
2022/11/21 11:25:49;;;;;;;1.70;0.70;;;;;;;;;;5034891;28;20096;-85
2022/11/21 11:28:14;;;;;;;1.77;0.98;;;;;;;;;;5035175;28;20510;-84
2022/11/21 11:30:40;;;;;;;2.67;0.80;;;;;;;;;;5017369;28;20045;-83
2022/11/21 11:33:27;;;;;;;1.83;0.65;;;;;;;;;;5034969;28;20506;-84
2022/11/21 11:35:57;;;;;;;3.25;1.00;;;;;;;;;;5016786;28;20120;-83
2022/11/21 11:38:27;;;;;;;1.08;0.82;;;;;;;;;;5035780;28;20379;-85
2022/11/21 11:40:53;;;;;;;1.38;1.00;;;;;;;;;;5034938;28;20039;-85
2022/11/21 11:52:43;;;;;;;2.67;1.10;;;;;;;;;;5022174;28;20041;-87
2022/11/21 11:55:23;;;;;;;1.77;0.80;;;;;;;;;;5040059;28;20030;-85
2022/11/21 11:57:51;;;;;;;1.20;0.80;;;;;;;;;;5040555;28;20038;-85
2022/11/21 12:00:42;;;;;;;2.00;0.82;;;;;;;;;;5039938;28;20041;-85
2022/11/21 12:03:38;;;;;;;1.20;0.77;;;;;;;;;;5023501;28;20037;-86
2022/11/21 12:06:19;;;;;;;1.85;1.05;;;;;;;;;;5022085;28;20041;-86
2022/11/21 12:08:58;;;;;;;2.90;1.20;;;;;;;;;;5041713;28;20029;-86
2022/11/21 12:18:19;;;;;;;5.63;1.88;;;;;;;;;;4943191;28;20035;-85
2022/11/21 12:21:14;;;;;;;2.88;1.60;;;;;;;;;;5038802;28;20457;-84
2022/11/21 12:23:54;;;;;;;3.55;1.65;;;;;;;;;;5037105;28;20550;-86
2022/11/21 12:26:38;;;;;;;2.05;1.17;;;;;;;;;;5034546;28;20057;-86
2022/11/21 12:29:09;;;;;;;3.85;1.50;;;;;;;;;;5036731;28;20486;-85
2022/11/21 12:32:00;;;;;;;6.38;1.40;;;;;;;;;;5036433;28;20122;-86
2022/11/21 12:34:43;;;;;;;2.10;0.90;;;;;;;;;;5018934;28;20037;-88
2022/11/21 12:37:15;;;;;;;6.18;1.23;;;;;;;;;;5036026;28;20099;-86
2022/11/21 12:39:46;;;;;;;3.90;2.17;;;;;;;;;;5036771;28;20573;-87
2022/11/21 12:45:10;;;;;;;1.95;0.80;;;;;;;;;;5034166;28;20035;-87
2022/11/21 12:54:32;;;;;;;0.98;0.43;;;;;;;;;;5033583;28;20513;-87
2022/11/21 12:57:10;;;;;;;3.30;0.60;;;;;;;;;;5034253;28;20029;-89
2022/11/21 12:59:56;;;;;;;3.20;0.80;;;;;;;;;;5034291;28;20029;-87
2022/11/21 13:02:33;;;;;;;4.20;1.00;;;;;;;;;;5018106;28;20510;-88
2022/11/21 13:05:01;;;;;;;4.70;1.58;;;;;;;;;;5017529;28;20486;-88
2022/11/21 13:07:29;;;;;;;4.80;1.20;;;;;;;;;;5034411;28;20033;-87
2022/11/21 13:09:57;;;;;;;1.95;0.90;;;;;;;;;;5034089;28;20367;-87
2022/11/21 13:12:42;;;;;;;1.15;0.50;;;;;;;;;;5015369;28;20576;-86
2022/11/21 13:15:18;;;;;;;1.88;0.57;;;;;;;;;;5014802;28;20037;-88
2022/11/21 13:17:52;;;;;;;4.70;0.77;;;;;;;;;;5015752;28;20040;-89
2022/11/21 13:20:23;;;;;;;0.70;0.60;;;;;;;;;;5036776;28;20064;-87
2022/11/21 13:22:50;;;;;;;1.85;0.57;;;;;;;;;;5036580;28;20041;-86
2022/11/21 13:25:30;;;;;;;1.85;0.43;;;;;;;;;;5034670;28;20521;-88
2022/11/21 13:28:18;;;;;;;1.75;0.50;;;;;;;;;;5033141;28;20121;-87
2022/11/21 13:30:53;;;;;;;2.25;0.50;;;;;;;;;;5015745;28;20065;-88
2022/11/21 13:33:49;;;;;;;3.03;0.50;;;;;;;;;;5034927;28;20056;-87
2022/11/21 13:36:34;;;;;;;0.95;0.43;;;;;;;;;;5013841;28;20095;-86
2022/11/21 13:38:59;;;;;;;0.85;0.60;;;;;;;;;;5016604;28;20068;-87
2022/11/21 13:44:45;;;;;;;5.10;1.90;;;;;;;;;;5013602;28;20065;-87
2022/11/21 13:47:52;;;;;;;2.10;1.48;;;;;;;;;;5032378;28;20545;-87
2022/11/21 13:50:46;;;;;;;4.63;2.00;;;;;;;;;;5018039;28;20450;-87
2022/11/21 13:53:24;;;;;;;6.00;1.85;;;;;;;;;;5032152;28;20034;-87
2022/11/21 13:55:49;;;;;;;3.10;1.30;;;;;;;;;;5032164;28;20034;-88
2022/11/21 13:58:30;;;;;;;4.25;1.45;;;;;;;;;;5032316;28;20449;-87
2022/11/21 14:01:13;;;;;;;5.85;2.05;;;;;;;;;;5032681;28;20124;-87
2022/11/21 14:04:22;;;;;;;2.20;1.30;;;;;;;;;;5034529;28;20483;-87
2022/11/21 14:06:48;;;;;;;1.48;0.90;;;;;;;;;;5029876;28;20114;-86
2022/11/21 14:09:19;;;;;;;1.95;1.10;;;;;;;;;;4998889;28;20038;-87
2022/11/21 14:11:50;;;;;;;2.03;1.00;;;;;;;;;;5032919;28;20040;-87
2022/11/21 14:14:26;;;;;;;1.73;1.05;;;;;;;;;;5031355;28;20095;-87
2022/11/21 14:17:00;;;;;;;2.97;1.02;;;;;;;;;;5016154;28;20493;-89
2022/11/21 14:19:25;;;;;;;;;;;;;;;;;;5033817;28;20493;-86
2022/11/21 14:21:51;;;;;;;4.50;1.50;;;;;;;;;;5033071;28;19967;-89
2022/11/21 14:24:18;;;;;;;4.43;1.40;;;;;;;;;;5031648;28;20510;-88
2022/11/21 14:26:50;;;;;;;4.95;2.40;;;;;;;;;;5013901;28;20072;-88
2022/11/21 14:29:25;;;;;;;5.13;2.17;;;;;;;;;;5031800;28;20041;-87
2022/11/21 14:31:51;;;;;;;5.45;2.40;;;;;;;;;;5031802;28;20034;-86
2022/11/21 14:34:27;;;;;;;4.80;2.00;;;;;;;;;;5014168;28;20117;-87
2022/11/21 14:36:54;;;;;;;2.33;1.40;;;;;;;;;;5031980;28;20041;-88
2022/11/21 14:39:24;;;;;;;3.78;1.63;;;;;;;;;;5036797;28;20042;-87
2022/11/21 14:42:01;;;;;;;3.05;1.10;;;;;;;;;;5056993;28;20067;-88
2022/11/21 14:44:27;;;;;;;2.75;1.40;;;;;;;;;;5047034;28;20041;-87
2022/11/21 14:47:19;;;;;;;2.35;1.02;;;;;;;;;;5035833;28;20045;-88
2022/11/21 14:49:53;;;;;;;3.33;1.60;;;;;;;;;;5018076;28;20040;-87
2022/11/21 14:52:23;;;;;;;4.63;2.60;;;;;;;;;;5035539;28;20030;-86
2022/11/21 14:54:54;;;;;;;5.97;2.28;;;;;;;;;;5035096;28;20029;-87
2022/11/21 14:57:26;;;;;;;3.03;1.77;;;;;;;;;;5035275;28;20041;-86
2022/11/21 14:59:53;;;;;;;2.22;1.20;;;;;;;;;;5035578;28;20449;-86
2022/11/21 15:02:31;;;;;;;3.65;1.63;;;;;;;;;;5017444;28;20470;-86
2022/11/21 15:05:07;;;;;;;3.50;2.20;;;;;;;;;;5034772;28;20041;-86
2022/11/21 15:07:44;;;;;;;4.00;1.88;;;;;;;;;;5035303;28;20025;-86
2022/11/21 15:10:18;;;;;;;6.78;3.30;;;;;;;;;;5034958;28;20569;-85
2022/11/21 15:12:56;;;;;;;2.75;1.65;;;;;;;;;;5034783;28;20461;-84
2022/11/21 15:15:33;;;;;;;3.53;1.88;;;;;;;;;;5015535;28;20498;-86
2022/11/21 15:18:04;;;;;;;3.88;1.83;;;;;;;;;;5016742;28;20037;-86
2022/11/21 15:20:30;;;;;;;4.03;1.83;;;;;;;;;;5035236;28;20030;-86
2022/11/21 15:22:58;;;;;;;4.38;1.95;;;;;;;;;;5035336;28;20041;-86
2022/11/21 15:25:27;;;;;;;3.38;1.70;;;;;;;;;;5034590;28;20046;-87
2022/11/21 15:27:58;;;;;;;5.97;2.05;;;;;;;;;;5037809;28;20508;-87
2022/11/21 15:30:31;;;;;;;4.05;1.90;;;;;;;;;;5035467;28;20041;-88
2022/11/21 15:32:57;;;;;;;4.07;1.95;;;;;;;;;;5018536;28;20033;-87
2022/11/21 15:35:45;;;;;;;4.00;2.22;;;;;;;;;;5035046;28;20387;-86
2022/11/21 15:38:48;;;;;;;6.70;3.17;;;;;;;;;;5034688;28;20040;-87
2022/11/21 15:41:13;;;;;;;5.65;3.03;;;;;;;;;;4983179;28;20056;-88
2022/11/21 15:43:39;;;;;;;5.90;3.08;;;;;;;;;;5017139;28;20033;-87
2022/11/21 15:52:46;;;;;;;6.45;2.83;;;;;;;;;;4966798;28;20189;-88
2022/11/21 15:55:25;;;;;;;3.65;1.27;;;;;;;;;;4979156;28;20045;-87
2022/11/21 15:57:50;;;;;;;3.70;1.70;;;;;;;;;;5016588;28;20115;-86
2022/11/21 16:00:16;;;;;;;5.40;2.83;;;;;;;;;;5016599;28;20061;-86
2022/11/21 16:02:42;;;;;;;7.32;4.00;;;;;;;;;;5016472;28;20090;-86
2022/11/21 16:05:12;;;;;;;6.63;3.30;;;;;;;;;;5018268;28;20557;-86
2022/11/21 16:07:39;;;;;;;4.95;2.97;;;;;;;;;;5019088;28;20033;-88
2022/11/21 16:10:05;;;;;;;6.57;3.42;;;;;;;;;;5040451;28;20049;-87
2022/11/21 16:12:30;;;;;;;6.78;3.60;;;;;;;;;;5038118;28;20018;-87